Time;durP1;ratioP1;P1;durP2;ratioP2;P2;SDS_P1;SDS_P2;PMS_P1;PMS_P2;Temp;Humidity;BMP_temperature;BMP_pressure;BME280_temperature;BME280_humidity;BME280_pressure;Samples;Min_cycle;Max_cycle;Signal;HPM_P1;HPM_P2
2024/01/15 00:01:59;;;;;;;;;;;;;;;;;;5133975;28;20375;-43
2024/01/15 00:04:24;;;;;;;;;;;;;;;;;;5133496;28;20406;-42
2024/01/15 00:06:50;;;;;;;;;;;;;;;;;;5133853;28;19998;-43
2024/01/15 00:09:15;;;;;;;;;;;;;;;;;;5133548;28;20011;-43
2024/01/15 00:11:41;;;;;;;;;;;;;;;;;;5133423;28;20415;-44
2024/01/15 00:14:07;;;;;;;;;;;;;;;;;;5133585;28;20398;-42
2024/01/15 00:16:32;;;;;;;;;;;;;;;;;;5133082;28;19971;-41
2024/01/15 00:18:58;;;;;;;;;;;;;;;;;;5133589;28;19923;-44
2024/01/15 00:21:23;;;;;;;;;;;;;;;;;;5133524;28;19931;-41
2024/01/15 00:23:49;;;;;;;;;;;;;;;;;;5133537;28;20002;-43
2024/01/15 00:26:15;;;;;;;;;;;;;;;;;;5133616;28;19959;-43
2024/01/15 00:28:40;;;;;;;;;;;;;;;;;;5133560;28;19923;-43
2024/01/15 00:31:06;;;;;;;;;;;;;;;;;;5133390;28;20018;-44
2024/01/15 00:33:31;;;;;;;;;;;;;;;;;;5133575;28;19934;-45
2024/01/15 00:35:57;;;;;;;;;;;;;;;;;;5133402;27;19930;-41
2024/01/15 00:38:22;;;;;;;;;;;;;;;;;;5133472;28;20020;-41
2024/01/15 00:40:48;;;;;;;;;;;;;;;;;;5133011;28;20418;-42
2024/01/15 00:43:13;;;;;;;;;;;;;;;;;;5133208;28;19970;-43
2024/01/15 00:45:39;;;;;;;;;;;;;;;;;;5132904;28;19930;-41
2024/01/15 00:48:04;;;;;;;;;;;;;;;;;;5133229;28;19972;-42
2024/01/15 00:50:30;;;;;;;;;;;;;;;;;;5133072;27;19923;-43
2024/01/15 00:52:55;;;;;;;;;;;;;;;;;;5136680;28;19923;-41
2024/01/15 00:55:21;;;;;;;;;;;;;;;;;;5136779;28;19975;-43
2024/01/15 00:57:46;;;;;;;;;;;;;;;;;;5136851;28;20267;-45
2024/01/15 01:00:12;;;;;;;;;;;;;;;;;;5136893;28;20010;-42
2024/01/15 01:02:37;;;;;;;;;;;;;;;;;;5136820;28;19970;-43
2024/01/15 01:05:03;;;;;;;;;;;;;;;;;;5136307;28;19946;-45
2024/01/15 01:07:28;;;;;;;;;;;;;;;;;;5136829;28;20015;-44
2024/01/15 01:09:54;;;;;;;;;;;;;;;;;;5136407;28;20025;-42
2024/01/15 01:12:19;;;;;;;;;;;;;;;;;;5136516;28;19931;-42
2024/01/15 01:14:45;;;;;;;;;;;;;;;;;;5136486;28;20378;-42
2024/01/15 01:17:10;;;;;;;;;;;;;;;;;;5136065;28;20010;-42
2024/01/15 01:19:36;;;;;;;;;;;;;;;;;;5136326;28;19927;-41
2024/01/15 01:22:02;;;;;;;;;;;;;;;;;;5136421;28;20328;-42
2024/01/15 01:24:28;;;;;;;;;;;;;;;;;;5136322;28;20431;-42
2024/01/15 01:26:53;;;;;;;;;;;;;;;;;;5136291;28;20007;-43
2024/01/15 01:29:18;;;;;;;;;;;;;;;;;;5136076;28;19995;-41
2024/01/15 01:31:44;;;;;;;;;;;;;;;;;;5136137;28;19927;-41
2024/01/15 01:34:09;;;;;;;;;;;;;;;;;;5136371;28;19972;-41
2024/01/15 01:36:35;;;;;;;;;;;;;;;;;;5136307;27;19923;-43
2024/01/15 01:39:00;;;;;;;;;;;;;;;;;;5136151;28;19924;-42
2024/01/15 01:41:26;;;;;;;;;;;;;;;;;;5135651;28;20418;-45
2024/01/15 01:43:51;;;;;;;;;;;;;;;;;;5136047;28;20287;-42
2024/01/15 01:46:17;;;;;;;;;;;;;;;;;;5135614;28;20293;-44
2024/01/15 01:48:42;;;;;;;;;;;;;;;;;;5135953;28;19963;-42
2024/01/15 01:51:08;;;;;;;;;;;;;;;;;;5135846;28;20027;-40
2024/01/15 01:53:33;;;;;;;;;;;;;;;;;;5135953;28;19931;-43
2024/01/15 01:55:59;;;;;;;;;;;;;;;;;;5135798;28;20011;-43
2024/01/15 01:58:25;;;;;;;;;;;;;;;;;;5135954;28;19927;-42
2024/01/15 02:00:50;;;;;;;;;;;;;;;;;;5135874;28;19927;-45
2024/01/15 02:03:16;;;;;;;;;;;;;;;;;;5135578;27;19959;-44
2024/01/15 02:05:42;;;;;;;;;;;;;;;;;;5135946;28;19930;-43
2024/01/15 02:08:07;;;;;;;;;;;;;;;;;;5135727;28;20394;-44
2024/01/15 02:10:32;;;;;;;;;;;;;;;;;;5135390;28;20010;-41
2024/01/15 02:12:58;;;;;;;;;;;;;;;;;;5135514;28;20390;-43
2024/01/15 02:15:23;;;;;;;;;;;;;;;;;;5135205;28;20316;-42
2024/01/15 02:17:49;;;;;;;;;;;;;;;;;;5135536;28;19923;-42
2024/01/15 02:20:14;;;;;;;;;;;;;;;;;;5135379;28;20312;-45
2024/01/15 02:22:40;;;;;;;;;;;;;;;;;;5135357;28;19959;-44
2024/01/15 02:25:05;;;;;;;;;;;;;;;;;;5135467;28;19923;-43
2024/01/15 02:27:30;;;;;;;;;;;;;;;;;;5135358;28;19959;-43
2024/01/15 02:29:56;;;;;;;;;;;;;;;;;;5134974;28;19978;-43
2024/01/15 02:32:21;;;;;;;;;;;;;;;;;;5135364;28;20278;-41
2024/01/15 02:34:47;;;;;;;;;;;;;;;;;;5135386;28;19928;-42
2024/01/15 02:37:12;;;;;;;;;;;;;;;;;;5135270;27;20020;-42
2024/01/15 02:39:38;;;;;;;;;;;;;;;;;;5135370;28;20002;-42
2024/01/15 02:42:03;;;;;;;;;;;;;;;;;;5135118;28;20289;-46
2024/01/15 02:44:29;;;;;;;;;;;;;;;;;;5134894;28;20041;-44
2024/01/15 02:46:54;;;;;;;;;;;;;;;;;;5134719;28;19927;-41
2024/01/15 02:49:20;;;;;;;;;;;;;;;;;;5134967;28;19951;-43
2024/01/15 02:51:46;;;;;;;;;;;;;;;;;;5134906;28;19924;-42
2024/01/15 02:54:12;;;;;;;;;;;;;;;;;;5134587;28;20353;-43
2024/01/15 02:56:37;;;;;;;;;;;;;;;;;;5134976;28;20343;-44
2024/01/15 02:59:03;;;;;;;;;;;;;;;;;;5135014;28;19923;-45
2024/01/15 03:01:29;;;;;;;;;;;;;;;;;;5134776;28;19923;-43
2024/01/15 03:03:55;;;;;;;;;;;;;;;;;;5134804;28;20424;-42
2024/01/15 03:06:20;;;;;;;;;;;;;;;;;;5134923;28;20306;-42
2024/01/15 03:08:46;;;;;;;;;;;;;;;;;;5134825;28;20006;-43
2024/01/15 03:11:11;;;;;;;;;;;;;;;;;;5134613;28;20027;-41
2024/01/15 03:13:37;;;;;;;;;;;;;;;;;;5133917;27;19962;-42
2024/01/15 03:16:02;;;;;;;;;;;;;;;;;;5134267;28;20018;-45
2024/01/15 03:18:28;;;;;;;;;;;;;;;;;;5134540;28;19947;-42
2024/01/15 03:20:53;;;;;;;;;;;;;;;;;;5134372;28;20018;-44
2024/01/15 03:23:19;;;;;;;;;;;;;;;;;;5134270;28;19989;-44
2024/01/15 03:25:44;;;;;;;;;;;;;;;;;;5134430;28;20381;-41
2024/01/15 03:28:10;;;;;;;;;;;;;;;;;;5134429;28;19955;-43
2024/01/15 03:30:35;;;;;;;;;;;;;;;;;;5134388;28;19923;-42
2024/01/15 03:33:01;;;;;;;;;;;;;;;;;;5134419;28;20027;-42
2024/01/15 03:35:29;;;;;;;;;;;;;;;;;;5134242;27;20019;-42
2024/01/15 03:37:54;;;;;;;;;;;;;;;;;;5134318;28;19935;-41
2024/01/15 03:40:20;;;;;;;;;;;;;;;;;;5134142;28;19930;-41
2024/01/15 03:42:48;;;;;;;;;;;;;;;;;;5134240;28;19931;-42
2024/01/15 03:45:14;;;;;;;;;;;;;;;;;;5133893;28;20006;-43
2024/01/15 03:47:39;;;;;;;;;;;;;;;;;;5133761;28;19924;-41
2024/01/15 03:50:05;;;;;;;;;;;;;;;;;;5133856;28;19976;-43
2024/01/15 03:52:30;;;;;;;;;;;;;;;;;;5134051;28;19969;-45
2024/01/15 03:54:56;;;;;;;;;;;;;;;;;;5133840;28;19963;-42
2024/01/15 03:57:21;;;;;;;;;;;;;;;;;;5133729;28;20017;-42
2024/01/15 03:59:47;;;;;;;;;;;;;;;;;;5133968;28;19924;-42
2024/01/15 04:02:12;;;;;;;;;;;;;;;;;;5133754;28;20011;-41
2024/01/15 04:04:38;;;;;;;;;;;;;;;;;;5133806;28;20385;-43
2024/01/15 04:07:03;;;;;;;;;;;;;;;;;;5133980;28;20383;-43
2024/01/15 04:09:29;;;;;;;;;;;;;;;;;;5133798;28;19967;-42
2024/01/15 04:11:54;;;;;;;;;;;;;;;;;;5133581;28;20069;-43
2024/01/15 04:14:19;;;;;;;;;;;;;;;;;;5133782;28;19923;-42
2024/01/15 04:16:45;;;;;;;;;;;;;;;;;;5132918;28;20022;-44
2024/01/15 04:19:10;;;;;;;;;;;;;;;;;;5133132;28;20390;-42
2024/01/15 04:21:36;;;;;;;;;;;;;;;;;;5133560;28;20405;-42
2024/01/15 04:24:01;;;;;;;;;;;;;;;;;;5133512;28;19931;-43
2024/01/15 04:26:27;;;;;;;;;;;;;;;;;;5133340;27;19923;-41
2024/01/15 04:28:52;;;;;;;;;;;;;;;;;;5133341;28;19969;-43
2024/01/15 04:31:18;;;;;;;;;;;;;;;;;;5133360;28;20415;-44
2024/01/15 04:33:43;;;;;;;;;;;;;;;;;;5133496;28;20006;-42
2024/01/15 04:36:09;;;;;;;;;;;;;;;;;;5133465;27;19978;-44
2024/01/15 04:38:36;;;;;;;;;;;;;;;;;;5133423;28;20018;-43
2024/01/15 04:41:01;;;;;;;;;;;;;;;;;;5133199;28;19923;-44
2024/01/15 04:43:27;;;;;;;;;;;;;;;;;;5133444;28;20369;-43
2024/01/15 04:45:52;;;;;;;;;;;;;;;;;;5133077;28;19976;-41
2024/01/15 04:48:18;;;;;;;;;;;;;;;;;;5133222;28;19923;-42
2024/01/15 04:50:43;;;;;;;;;;;;;;;;;;5133028;28;19959;-41
2024/01/15 04:53:09;;;;;;;;;;;;;;;;;;5133210;28;19924;-44
2024/01/15 04:55:39;;;;;;;;;;;;;;;;;;5132915;28;19945;-45
2024/01/15 04:58:04;;;;;;;;;;;;;;;;;;5132900;28;20263;-41
2024/01/15 05:00:29;;;;;;;;;;;;;;;;;;5133146;28;20383;-42
2024/01/15 05:02:56;;;;;;;;;;;;;;;;;;5133109;28;20331;-42
2024/01/15 05:05:21;;;;;;;;;;;;;;;;;;5133142;28;19923;-43
2024/01/15 05:07:46;;;;;;;;;;;;;;;;;;5133058;28;20377;-43
2024/01/15 05:10:12;;;;;;;;;;;;;;;;;;5132781;28;19973;-44
2024/01/15 05:12:37;;;;;;;;;;;;;;;;;;5133059;28;19924;-44
2024/01/15 05:15:03;;;;;;;;;;;;;;;;;;5132949;28;19946;-42
2024/01/15 05:17:29;;;;;;;;;;;;;;;;;;5132724;28;20386;-42
2024/01/15 05:19:54;;;;;;;;;;;;;;;;;;5132697;28;19932;-43
2024/01/15 05:22:21;;;;;;;;;;;;;;;;;;5132748;28;19975;-41
2024/01/15 05:24:46;;;;;;;;;;;;;;;;;;5132827;28;19930;-42
2024/01/15 05:27:12;;;;;;;;;;;;;;;;;;5132532;28;20021;-42
2024/01/15 05:29:37;;;;;;;;;;;;;;;;;;5132749;28;20391;-41
2024/01/15 05:32:02;;;;;;;;;;;;;;;;;;5132620;28;19923;-43
2024/01/15 05:34:28;;;;;;;;;;;;;;;;;;5132455;28;20010;-41
2024/01/15 05:36:53;;;;;;;;;;;;;;;;;;5132607;27;19977;-42
2024/01/15 05:39:19;;;;;;;;;;;;;;;;;;5136128;28;20052;-42
2024/01/15 05:41:48;;;;;;;;;;;;;;;;;;5135953;28;19930;-42
2024/01/15 05:44:13;;;;;;;;;;;;;;;;;;5136147;28;20337;-43
2024/01/15 05:46:39;;;;;;;;;;;;;;;;;;5135288;28;19951;-43
2024/01/15 05:49:04;;;;;;;;;;;;;;;;;;5135875;28;20023;-43
2024/01/15 05:51:30;;;;;;;;;;;;;;;;;;5134319;28;19970;-41
2024/01/15 05:53:55;;;;;;;;;;;;;;;;;;5129860;28;19931;-42
2024/01/15 05:56:21;;;;;;;;;;;;;;;;;;5134130;28;20011;-43
2024/01/15 05:58:46;;;;;;;;;;;;;;;;;;5134776;28;19924;-43
2024/01/15 06:01:12;;;;;;;;;;;;;;;;;;5133993;28;20372;-41
2024/01/15 06:03:37;;;;;;;;;;;;;;;;;;5135101;28;19974;-45
2024/01/15 06:06:03;;;;;;;;;;;;;;;;;;5134311;28;20391;-41
2024/01/15 06:08:28;;;;;;;;;;;;;;;;;;5134011;28;20479;-42
2024/01/15 06:10:54;;;;;;;;;;;;;;;;;;5132302;28;19930;-42
2024/01/15 06:13:19;;;;;;;;;;;;;;;;;;5134211;28;19938;-45
2024/01/15 06:15:45;;;;;;;;;;;;;;;;;;5134454;28;20010;-41
2024/01/15 06:18:10;;;;;;;;;;;;;;;;;;5134702;28;20369;-43
2024/01/15 06:20:36;;;;;;;;;;;;;;;;;;5132682;28;20362;-42
2024/01/15 06:23:01;;;;;;;;;;;;;;;;;;5131124;28;19927;-43
2024/01/15 06:25:27;;;;;;;;;;;;;;;;;;5131421;28;20285;-43
2024/01/15 06:27:52;;;;;;;;;;;;;;;;;;5132500;28;20063;-42
2024/01/15 06:30:18;;;;;;;;;;;;;;;;;;5133595;28;19971;-42
2024/01/15 06:32:43;;;;;;;;;;;;;;;;;;5131089;28;20046;-43
2024/01/15 06:35:11;;;;;;;;;;;;;;;;;;5129035;28;20064;-46
2024/01/15 06:37:36;;;;;;;;;;;;;;;;;;5133141;28;19923;-41
2024/01/15 06:40:02;;;;;;;;;;;;;;;;;;5134118;28;20393;-53
2024/01/15 06:42:28;;;;;;;;;;;;;;;;;;5128003;28;20046;-47
2024/01/15 06:44:54;;;;;;;;;;;;;;;;;;5133904;28;20335;-46
2024/01/15 06:47:19;;;;;;;;;;;;;;;;;;5129066;28;20418;-47
2024/01/15 06:49:44;;;;;;;;;;;;;;;;;;5121086;28;20014;-47
2024/01/15 06:52:11;;;;;;;;;;;;;;;;;;5129800;28;19979;-48
2024/01/15 06:54:36;;;;;;;;;;;;;;;;;;5127877;28;19977;-45
2024/01/15 06:57:02;;;;;;;;;;;;;;;;;;5127140;28;19924;-42
2024/01/15 06:59:27;;;;;;;;;;;;;;;;;;5114821;28;19932;-49
2024/01/15 07:01:53;;;;;;;;;;;;;;;;;;5117918;27;20370;-48
2024/01/15 07:04:18;;;;;;;;;;;;;;;;;;5119929;28;19924;-45
2024/01/15 07:06:44;;;;;;;;;;;;;;;;;;5125758;27;20020;-47
2024/01/15 07:09:10;;;;;;;;;;;;;;;;;;5130975;28;19927;-47
2024/01/15 07:11:36;;;;;;;;;;;;;;;;;;5124168;28;19957;-46
2024/01/15 07:14:01;;;;;;;;;;;;;;;;;;5130472;28;20022;-47
2024/01/15 07:16:27;;;;;;;;;;;;;;;;;;5131931;28;19923;-46
2024/01/15 07:19:02;;;;;;;;;;;;;;;;;;5128774;28;19971;-47
2024/01/15 07:21:27;;;;;;;;;;;;;;;;;;5128359;27;19939;-46
2024/01/15 07:23:53;;;;;;;;;;;;;;;;;;5124634;28;20014;-47
2024/01/15 07:26:18;;;;;;;;;;;;;;;;;;5125184;28;20372;-44
2024/01/15 07:28:44;;;;;;;;;;;;;;;;;;5133153;28;20318;-46
2024/01/15 07:31:09;;;;;;;;;;;;;;;;;;5125446;28;20346;-43
2024/01/15 07:33:35;;;;;;;;;;;;;;;;;;5126267;28;20007;-46
2024/01/15 07:36:02;;;;;;;;;;;;;;;;;;5122541;27;20263;-43
2024/01/15 07:38:29;;;;;;;;;;;;;;;;;;5132356;28;20416;-45
2024/01/15 07:40:55;;;;;;;;;;;;;;;;;;5132339;28;20006;-46
2024/01/15 07:43:20;;;;;;;;;;;;;;;;;;5131744;28;19923;-45
2024/01/15 07:45:46;;;;;;;;;;;;;;;;;;5127919;28;19970;-45
2024/01/15 07:48:11;;;;;;;;;;;;;;;;;;5124589;28;19970;-44
2024/01/15 07:50:37;;;;;;;;;;;;;;;;;;5131688;28;20064;-48
2024/01/15 07:53:03;;;;;;;;;;;;;;;;;;5130545;28;20344;-44
2024/01/15 07:55:29;;;;;;;;;;;;;;;;;;5120840;27;20358;-42
2024/01/15 07:57:58;;;;;;;;;;;;;;;;;;5121755;28;20399;-46
2024/01/15 08:00:32;;;;;;;;;;;;;;;;;;5126072;27;20303;-49
2024/01/15 08:02:58;;;;;;;;;;;;;;;;;;5130558;28;19967;-47
2024/01/15 08:05:23;;;;;;;;;;;;;;;;;;5119495;27;20018;-45
2024/01/15 08:07:49;;;;;;;;;;;;;;;;;;5118857;28;19932;-45
2024/01/15 08:10:14;;;;;;;;;;;;;;;;;;5120061;27;20363;-46
2024/01/15 08:12:39;;;;;;;;;;;;;;;;;;5108159;28;19927;-44
2024/01/15 08:15:05;;;;;;;;;;;;;;;;;;5113853;28;20451;-44
2024/01/15 08:17:32;;;;;;;;;;;;;;;;;;5123412;28;19934;-45
2024/01/15 08:19:57;;;;;;;;;;;;;;;;;;5125570;28;19943;-44
2024/01/15 08:22:23;;;;;;;;;;;;;;;;;;5121998;28;19923;-44
2024/01/15 08:24:49;;;;;;;;;;;;;;;;;;5120715;28;19931;-43
2024/01/15 08:27:14;;;;;;;;;;;;;;;;;;5123476;28;19967;-45
2024/01/15 08:29:40;;;;;;;;;;;;;;;;;;5127703;28;20297;-46
2024/01/15 08:32:05;;;;;;;;;;;;;;;;;;5124578;28;19973;-47
2024/01/15 08:34:31;;;;;;;;;;;;;;;;;;5129509;27;19923;-47
2024/01/15 08:36:57;;;;;;;;;;;;;;;;;;5128546;27;19923;-45
2024/01/15 08:39:22;;;;;;;;;;;;;;;;;;5127551;28;19930;-47
2024/01/15 08:41:48;;;;;;;;;;;;;;;;;;5129015;28;19923;-46
2024/01/15 08:44:13;;;;;;;;;;;;;;;;;;5129352;27;20368;-46
2024/01/15 08:46:39;;;;;;;;;;;;;;;;;;5126986;28;19963;-48
2024/01/15 08:49:05;;;;;;;;;;;;;;;;;;5122880;27;19923;-47
2024/01/15 08:51:31;;;;;;;;;;;;;;;;;;5116618;27;19927;-45
2024/01/15 08:53:56;;;;;;;;;;;;;;;;;;5115940;28;20042;-47
2024/01/15 08:56:22;;;;;;;;;;;;;;;;;;5114382;27;19988;-46
2024/01/15 08:58:47;;;;;;;;;;;;;;;;;;5116077;28;19931;-48
2024/01/15 09:01:13;;;;;;;;;;;;;;;;;;5115056;27;19966;-47
2024/01/15 09:03:38;;;;;;;;;;;;;;;;;;5112140;28;19980;-44
2024/01/15 09:06:04;;;;;;;;;;;;;;;;;;5110024;27;20602;-45
2024/01/15 09:08:29;;;;;;;;;;;;;;;;;;5111071;28;20018;-46
2024/01/15 09:10:55;;;;;;;;;;;;;;;;;;5125614;27;20390;-43
2024/01/15 09:13:20;;;;;;;;;;;;;;;;;;5127439;28;20360;-45
2024/01/15 09:15:46;;;;;;;;;;;;;;;;;;5133215;27;20363;-42
2024/01/15 09:18:11;;;;;;;;;;;;;;;;;;5125891;28;20099;-41
2024/01/15 09:20:38;;;;;;;;;;;;;;;;;;5124313;28;19935;-42
2024/01/15 09:23:03;;;;;;;;;;;;;;;;;;5126282;28;19927;-40
2024/01/15 09:25:29;;;;;;;;;;;;;;;;;;5128909;28;20019;-42
2024/01/15 09:27:54;;;;;;;;;;;;;;;;;;5126611;28;19924;-41
2024/01/15 09:30:20;;;;;;;;;;;;;;;;;;5120016;28;20667;-42
2024/01/15 09:32:46;;;;;;;;;;;;;;;;;;5121597;28;19938;-41
2024/01/15 09:35:11;;;;;;;;;;;;;;;;;;5130155;27;20275;-40
2024/01/15 09:37:37;;;;;;;;;;;;;;;;;;5124284;28;20442;-42
2024/01/15 09:40:10;;;;;;;;;;;;;;;;;;5126285;28;19931;-43
2024/01/15 09:42:36;;;;;;;;;;;;;;;;;;5127905;28;19954;-42
2024/01/15 09:45:03;;;;;;;;;;;;;;;;;;5132137;27;19924;-40
2024/01/15 09:47:28;;;;;;;;;;;;;;;;;;5126518;28;19931;-41
2024/01/15 09:49:54;;;;;;;;;;;;;;;;;;5133177;27;19923;-40
2024/01/15 09:52:20;;;;;;;;;;;;;;;;;;5130656;28;19938;-42
2024/01/15 09:54:45;;;;;;;;;;;;;;;;;;5128313;28;20427;-44
2024/01/15 09:57:13;;;;;;;;;;;;;;;;;;5122162;28;19943;-42
2024/01/15 09:59:39;;;;;;;;;;;;;;;;;;5126771;28;20016;-41
2024/01/15 10:02:04;;;;;;;;;;;;;;;;;;5127651;27;19938;-42
2024/01/15 10:04:30;;;;;;;;;;;;;;;;;;5127471;28;20004;-44
2024/01/15 10:06:55;;;;;;;;;;;;;;;;;;5128236;28;19934;-42
2024/01/15 10:09:21;;;;;;;;;;;;;;;;;;5128664;28;20010;-43
2024/01/15 10:11:46;;;;;;;;;;;;;;;;;;5128276;28;19927;-40
2024/01/15 10:14:12;;;;;;;;;;;;;;;;;;5122326;28;19927;-40
2024/01/15 10:16:37;;;;;;;;;;;;;;;;;;5126699;28;19923;-39
2024/01/15 10:19:03;;;;;;;;;;;;;;;;;;5125508;28;20431;-42
2024/01/15 10:21:28;;;;;;;;;;;;;;;;;;5123891;28;20022;-41
2024/01/15 10:23:54;;;;;;;;;;;;;;;;;;5125204;27;20022;-40
2024/01/15 10:26:19;;;;;;;;;;;;;;;;;;5128340;27;19932;-40
2024/01/15 10:28:45;;;;;;;;;;;;;;;;;;5126002;28;19957;-41
2024/01/15 10:31:10;;;;;;;;;;;;;;;;;;5129194;28;20287;-42
2024/01/15 10:33:36;;;;;;;;;;;;;;;;;;5125403;28;19931;-41
2024/01/15 10:36:02;;;;;;;;;;;;;;;;;;5124454;28;19972;-41
2024/01/15 10:38:27;;;;;;;;;;;;;;;;;;5128847;28;19969;-41
2024/01/15 10:40:53;;;;;;;;;;;;;;;;;;5119101;27;19931;-40
2024/01/15 10:43:18;;;;;;;;;;;;;;;;;;5118530;27;19927;-40
2024/01/15 10:45:44;;;;;;;;;;;;;;;;;;5123406;28;19946;-41
2024/01/15 10:48:09;;;;;;;;;;;;;;;;;;5126688;28;20306;-42
2024/01/15 10:50:35;;;;;;;;;;;;;;;;;;5128421;28;19950;-40
2024/01/15 10:53:01;;;;;;;;;;;;;;;;;;5124835;28;20398;-42
2024/01/15 10:55:26;;;;;;;;;;;;;;;;;;5120896;28;19927;-42
2024/01/15 10:57:52;;;;;;;;;;;;;;;;;;5130035;28;20399;-42
2024/01/15 11:00:17;;;;;;;;;;;;;;;;;;5128531;27;19935;-41
2024/01/15 11:02:44;;;;;;;;;;;;;;;;;;5129398;27;19972;-43
2024/01/15 11:05:10;;;;;;;;;;;;;;;;;;5122483;28;20004;-41
2024/01/15 11:07:35;;;;;;;;;;;;;;;;;;5120749;27;19936;-41
2024/01/15 11:10:01;;;;;;;;;;;;;;;;;;5121528;28;19989;-43
2024/01/15 11:12:27;;;;;;;;;;;;;;;;;;5117395;28;19932;-43
2024/01/15 11:14:54;;;;;;;;;;;;;;;;;;5122216;28;19928;-42
2024/01/15 11:17:20;;;;;;;;;;;;;;;;;;5122715;28;19923;-40
2024/01/15 11:19:45;;;;;;;;;;;;;;;;;;5124670;28;19974;-41
2024/01/15 11:22:11;;;;;;;;;;;;;;;;;;5126737;28;19934;-41
2024/01/15 11:24:37;;;;;;;;;;;;;;;;;;5129556;28;19965;-41
2024/01/15 11:27:02;;;;;;;;;;;;;;;;;;5125118;27;19963;-44
2024/01/15 11:29:28;;;;;;;;;;;;;;;;;;5126360;27;19985;-43
2024/01/15 11:31:55;;;;;;;;;;;;;;;;;;5112578;27;20187;-43
2024/01/15 11:34:21;;;;;;;;;;;;;;;;;;5119468;27;20026;-44
2024/01/15 11:36:46;;;;;;;;;;;;;;;;;;5121538;28;20418;-42
2024/01/15 11:39:14;;;;;;;;;;;;;;;;;;5126153;27;19928;-43
2024/01/15 11:41:40;;;;;;;;;;;;;;;;;;5124090;28;19928;-42
2024/01/15 11:44:05;;;;;;;;;;;;;;;;;;5119535;28;19927;-41
2024/01/15 11:46:30;;;;;;;;;;;;;;;;;;5125075;28;19923;-41
2024/01/15 11:48:56;;;;;;;;;;;;;;;;;;5126948;28;20006;-41
2024/01/15 11:51:21;;;;;;;;;;;;;;;;;;5121225;27;20014;-42
2024/01/15 11:53:47;;;;;;;;;;;;;;;;;;5121031;28;20043;-42
2024/01/15 11:56:12;;;;;;;;;;;;;;;;;;5116049;28;19927;-40
2024/01/15 11:58:38;;;;;;;;;;;;;;;;;;5115071;27;19927;-41
2024/01/15 12:01:03;;;;;;;;;;;;;;;;;;5118396;28;20007;-40
2024/01/15 12:03:29;;;;;;;;;;;;;;;;;;5120879;27;20332;-42
2024/01/15 12:05:54;;;;;;;;;;;;;;;;;;5121886;28;20018;-41
2024/01/15 12:08:20;;;;;;;;;;;;;;;;;;5118336;28;19984;-42
2024/01/15 12:10:46;;;;;;;;;;;;;;;;;;5113825;28;19932;-42
2024/01/15 12:13:12;;;;;;;;;;;;;;;;;;5117808;28;20260;-42
2024/01/15 12:15:38;;;;;;;;;;;;;;;;;;5121194;27;19928;-43
2024/01/15 12:18:03;;;;;;;;;;;;;;;;;;5118848;27;19931;-45
2024/01/15 12:20:29;;;;;;;;;;;;;;;;;;5124470;27;20673;-42
2024/01/15 12:22:55;;;;;;;;;;;;;;;;;;5124648;28;19928;-42
2024/01/15 12:25:27;;;;;;;;;;;;;;;;;;5124827;27;19930;-44
2024/01/15 12:27:52;;;;;;;;;;;;;;;;;;5121159;27;19923;-40
2024/01/15 12:30:18;;;;;;;;;;;;;;;;;;5111181;27;20377;-43
2024/01/15 12:32:44;;;;;;;;;;;;;;;;;;5108759;28;19927;-41
2024/01/15 12:35:09;;;;;;;;;;;;;;;;;;5108193;27;19931;-41
2024/01/15 12:37:35;;;;;;;;;;;;;;;;;;5106814;28;19934;-40
2024/01/15 12:40:00;;;;;;;;;;;;;;;;;;5110357;28;20811;-42
2024/01/15 12:42:26;;;;;;;;;;;;;;;;;;5117790;28;19970;-43
2024/01/15 12:44:51;;;;;;;;;;;;;;;;;;5120615;28;19927;-43
2024/01/15 12:47:18;;;;;;;;;;;;;;;;;;5121927;27;19925;-41
2024/01/15 12:49:44;;;;;;;;;;;;;;;;;;5125889;28;19931;-40
2024/01/15 12:52:10;;;;;;;;;;;;;;;;;;5126146;28;19932;-42
2024/01/15 12:54:35;;;;;;;;;;;;;;;;;;5125315;28;20054;-42
2024/01/15 12:57:00;;;;;;;;;;;;;;;;;;5123138;28;20172;-40
2024/01/15 12:59:26;;;;;;;;;;;;;;;;;;5129396;27;19931;-42
2024/01/15 13:01:51;;;;;;;;;;;;;;;;;;5126717;28;20236;-42
2024/01/15 13:04:17;;;;;;;;;;;;;;;;;;5130773;28;19931;-40
2024/01/15 13:06:43;;;;;;;;;;;;;;;;;;5132844;28;20010;-45
2024/01/15 13:09:10;;;;;;;;;;;;;;;;;;5131941;27;19954;-44
2024/01/15 13:11:35;;;;;;;;;;;;;;;;;;5122938;28;19966;-42
2024/01/15 13:14:01;;;;;;;;;;;;;;;;;;5126605;28;20014;-42
2024/01/15 13:16:28;;;;;;;;;;;;;;;;;;5123700;27;20353;-42
2024/01/15 13:18:54;;;;;;;;;;;;;;;;;;5125171;27;19928;-41
2024/01/15 13:21:20;;;;;;;;;;;;;;;;;;5126877;28;19962;-43
2024/01/15 13:23:45;;;;;;;;;;;;;;;;;;5127956;27;19932;-42
2024/01/15 13:26:10;;;;;;;;;;;;;;;;;;5125750;28;20351;-41
2024/01/15 13:28:36;;;;;;;;;;;;;;;;;;5129229;28;20091;-42
2024/01/15 13:31:02;;;;;;;;;;;;;;;;;;5128658;28;20088;-39
2024/01/15 13:33:27;;;;;;;;;;;;;;;;;;5116793;28;19931;-40
2024/01/15 13:35:53;;;;;;;;;;;;;;;;;;5114247;27;19931;-41
2024/01/15 13:38:18;;;;;;;;;;;;;;;;;;5114015;28;20021;-44
2024/01/15 13:40:45;;;;;;;;;;;;;;;;;;5114717;28;19967;-41
2024/01/15 13:43:10;;;;;;;;;;;;;;;;;;5116520;28;19982;-42
2024/01/15 13:45:37;;;;;;;;;;;;;;;;;;5113687;28;19931;-39
2024/01/15 13:48:05;;;;;;;;;;;;;;;;;;5114918;28;19939;-41
2024/01/15 13:50:30;;;;;;;;;;;;;;;;;;5116114;28;19932;-41
2024/01/15 13:52:56;;;;;;;;;;;;;;;;;;5133358;28;19938;-43
2024/01/15 13:55:22;;;;;;;;;;;;;;;;;;5129332;27;20370;-43
2024/01/15 13:57:47;;;;;;;;;;;;;;;;;;5128290;27;19923;-41
2024/01/15 14:00:14;;;;;;;;;;;;;;;;;;5132298;27;20014;-42
2024/01/15 14:02:40;;;;;;;;;;;;;;;;;;5133166;28;19934;-41
2024/01/15 14:05:06;;;;;;;;;;;;;;;;;;5134237;28;19923;-40
2024/01/15 14:07:32;;;;;;;;;;;;;;;;;;5128369;28;24076;-40
2024/01/15 14:09:58;;;;;;;;;;;;;;;;;;5134168;28;19972;-40
2024/01/15 14:12:23;;;;;;;;;;;;;;;;;;5122315;28;20399;-40
2024/01/15 14:14:49;;;;;;;;;;;;;;;;;;5128837;28;20026;-43
2024/01/15 14:17:14;;;;;;;;;;;;;;;;;;5129323;27;19930;-42
2024/01/15 14:19:40;;;;;;;;;;;;;;;;;;5133465;28;19930;-41
2024/01/15 14:22:05;;;;;;;;;;;;;;;;;;5126922;28;20033;-42
2024/01/15 14:24:31;;;;;;;;;;;;;;;;;;5124496;28;20071;-42
2024/01/15 14:26:56;;;;;;;;;;;;;;;;;;5124179;28;20379;-42
2024/01/15 14:29:25;;;;;;;;;;;;;;;;;;5127043;28;19927;-42
2024/01/15 14:31:50;;;;;;;;;;;;;;;;;;5130782;28;19930;-40
2024/01/15 14:34:17;;;;;;;;;;;;;;;;;;5129113;28;19927;-42
2024/01/15 14:36:43;;;;;;;;;;;;;;;;;;5126108;27;20038;-40
2024/01/15 14:39:09;;;;;;;;;;;;;;;;;;5133326;28;19924;-41
2024/01/15 14:41:35;;;;;;;;;;;;;;;;;;5132800;28;19931;-42
2024/01/15 14:44:00;;;;;;;;;;;;;;;;;;5125241;28;20014;-42
2024/01/15 14:46:27;;;;;;;;;;;;;;;;;;5120289;28;20010;-42
2024/01/15 14:48:52;;;;;;;;;;;;;;;;;;5128063;28;19947;-40
2024/01/15 14:51:18;;;;;;;;;;;;;;;;;;5134628;28;20332;-42
2024/01/15 14:53:44;;;;;;;;;;;;;;;;;;5133839;28;19955;-43
2024/01/15 14:56:09;;;;;;;;;;;;;;;;;;5132842;28;19923;-44
2024/01/15 14:58:34;;;;;;;;;;;;;;;;;;5134586;28;19934;-44
2024/01/15 15:01:00;;;;;;;;;;;;;;;;;;5133241;28;19924;-42
2024/01/15 15:03:26;;;;;;;;;;;;;;;;;;5134287;28;19928;-41
2024/01/15 15:05:51;;;;;;;;;;;;;;;;;;5132491;28;20013;-41
2024/01/15 15:08:17;;;;;;;;;;;;;;;;;;5134046;27;20018;-41
2024/01/15 15:10:42;;;;;;;;;;;;;;;;;;5133268;27;19930;-41
2024/01/15 15:13:07;;;;;;;;;;;;;;;;;;5134631;28;19977;-41
2024/01/15 15:15:34;;;;;;;;;;;;;;;;;;5134284;28;20018;-42
2024/01/15 15:17:59;;;;;;;;;;;;;;;;;;5134504;28;19931;-42
2024/01/15 15:20:25;;;;;;;;;;;;;;;;;;5134556;28;20006;-41
2024/01/15 15:22:54;;;;;;;;;;;;;;;;;;5134277;27;19966;-41
2024/01/15 15:25:21;;;;;;;;;;;;;;;;;;5134177;28;19923;-44
2024/01/15 15:27:47;;;;;;;;;;;;;;;;;;5134219;28;19947;-42
2024/01/15 15:30:12;;;;;;;;;;;;;;;;;;5134258;28;20356;-41
2024/01/15 15:32:38;;;;;;;;;;;;;;;;;;5133833;28;19927;-41
2024/01/15 15:35:03;;;;;;;;;;;;;;;;;;5134111;27;20374;-41
2024/01/15 15:37:30;;;;;;;;;;;;;;;;;;5134168;28;20017;-41
2024/01/15 15:39:55;;;;;;;;;;;;;;;;;;5133545;28;20329;-42
2024/01/15 15:42:21;;;;;;;;;;;;;;;;;;5133772;28;20422;-41
2024/01/15 15:44:47;;;;;;;;;;;;;;;;;;5134144;28;19931;-41
2024/01/15 15:47:14;;;;;;;;;;;;;;;;;;5133771;28;19923;-40
2024/01/15 15:49:39;;;;;;;;;;;;;;;;;;5134118;28;19931;-42
2024/01/15 15:52:05;;;;;;;;;;;;;;;;;;5133922;28;20002;-41
2024/01/15 15:54:30;;;;;;;;;;;;;;;;;;5133761;28;20304;-41
2024/01/15 15:56:56;;;;;;;;;;;;;;;;;;5133688;28;19923;-41
2024/01/15 15:59:24;;;;;;;;;;;;;;;;;;5124580;28;19928;-41
2024/01/15 16:01:49;;;;;;;;;;;;;;;;;;5113193;28;20351;-42
2024/01/15 16:04:15;;;;;;;;;;;;;;;;;;5113452;28;19972;-41
2024/01/15 16:06:40;;;;;;;;;;;;;;;;;;5118760;28;20022;-41
2024/01/15 16:09:06;;;;;;;;;;;;;;;;;;5133683;28;19963;-41
2024/01/15 16:11:31;;;;;;;;;;;;;;;;;;5133136;28;19923;-40
2024/01/15 16:13:57;;;;;;;;;;;;;;;;;;5133708;28;19955;-41
2024/01/15 16:16:23;;;;;;;;;;;;;;;;;;5133388;28;19980;-40
2024/01/15 16:19:08;;;;;;;;;;;;;;;;;;5118671;28;19930;-41
2024/01/15 16:21:54;;;;;;;;;;;;;;;;;;5132414;27;19984;-42
2024/01/15 16:24:39;;;;;;;;;;;;;;;;;;5118454;28;19924;-44
2024/01/15 16:27:15;;;;;;;;;;;;;;;;;;5133540;28;20397;-42
2024/01/15 16:29:42;;;;;;;;;;;;;;;;;;5133673;28;19924;-42
2024/01/15 16:32:07;;;;;;;;;;;;;;;;;;5133548;28;19993;-41
2024/01/15 16:34:33;;;;;;;;;;;;;;;;;;5133749;28;20316;-42
2024/01/15 16:36:58;;;;;;;;;;;;;;;;;;5133345;28;19977;-41